Aelvsbyn, Sweden

12:06 PM CEST on September 21, 2014 (GMT +0200)
IBDBODEN2 | Change Station
CLOSE
Current Station
Personal Weather Station
Location: Boden, BD
Elevation: 6 ft
Nearby Weather Stations

Elev 6 ft 65.85 °N, 21.53 °E | Updated 2 seconds ago

Overcast
Overcast
46.9 °F
Feels Like 47 °F
N
1.7
Wind Variable Wind from NW
Gusts 7.6 mph

Today
High -- | Low -- °F
--% Chance of Precip.
Yesterday
High -- | Low -- °F
Precip. -- in
6:14 AM 6:41 PM
Waning Crescent, 7% visible
Pressure 29.65 in
Visibility 6.2 miles
Clouds Few 1500 ft
Overcast 3700 ft
Windchill 47 °F
Dew Point 42 °F
Humidity 84%
Rainfall 0.00 in
Snow Depth Not available.
UV 1 out of 12
Pollen Not available.
Air Quality Not available.
Flu Activity Not available.
METAR ESPE 210950Z AUTO 36013KT 9999NDV FEW015/// OVC037/// 06/03 Q1004

More Conditions Fewer Conditions

Pressure 29.65 in
Visibility 6.2 miles
Clouds Few 1500 ft
Overcast 3700 ft
Windchill 47 °F
Dew Point 42 °F
Humidity 84%
Rainfall 0.00 in
Snow Depth Not available.
UV 1 out of 12
Pollen Not available.
Air Quality Not available.
Flu Activity Not available.
METAR ESPE 210950Z AUTO 36013KT 9999NDV FEW015/// OVC037/// 06/03 Q1004

More Conditions Fewer Conditions

10-Day Weather Forecast

Almanac

Astronomy

Sep. 21, 2014 Rise Set
Actual Time 6:14 AM CEST 6:41 PM CEST
Civil Twilight 5:23 AM CEST 7:32 PM CEST
Nautical Twilight 4:19 AM CEST 8:35 PM CEST
Astronomical Twilight 3:03 AM CEST 9:49 PM CEST
Moon 2:40 AM CEST 5:45 PM CEST
Length of Visible Light 14h 09m
Length of Day
12h 27m
Tomorrow will be 6m 53s shorter.
Waning Crescent, 7% of the Moon is Illuminated
Today
Waning Crescent
Sep 24
New
Oct 1
First Quarter
Oct 8
Full
Oct 15
Last Quarter

Yesterday's Extremes

Country Highs Country Lows

Community

WunderPhotos

Upload Photos

1,755,106 photos uploaded!

Nearby

Snow Depth

Not available.

Earthquake Activity

City Distance Mag. Time & Date
No recent earthquake activity has been reported nearby.
Minimum magnitude displayed is 2.5.

Coastal Water Temperatures

Place Temperature
No Stations Reporting

Nearby Weather Stations